sensor_id;sensor_type;location;lat;lon;timestamp;pressure;altitude;pressure_sealevel;temperature
69435;BMP180;56625;54.322;18.582;2022-12-29T00:00:25;100001.40;;;6.80
69435;BMP180;56625;54.322;18.582;2022-12-29T00:03:13;99999.40;;;6.80
69435;BMP180;56625;54.322;18.582;2022-12-29T00:05:41;99994.40;;;6.80
69435;BMP180;56625;54.322;18.582;2022-12-29T00:08:09;99995.20;;;6.80
69435;BMP180;56625;54.322;18.582;2022-12-29T00:10:37;99991.60;;;6.80
69435;BMP180;56625;54.322;18.582;2022-12-29T00:13:05;99988.40;;;6.80
69435;BMP180;56625;54.322;18.582;2022-12-29T00:15:51;99988.80;;;6.80
69435;BMP180;56625;54.322;18.582;2022-12-29T00:18:19;99984.20;;;6.76
69435;BMP180;56625;54.322;18.582;2022-12-29T00:20:47;99983.20;;;6.80
69435;BMP180;56625;54.322;18.582;2022-12-29T00:23:36;99982.40;;;6.74
69435;BMP180;56625;54.322;18.582;2022-12-29T00:26:22;99977.20;;;6.76
69435;BMP180;56625;54.322;18.582;2022-12-29T00:29:09;99976.40;;;6.78
69435;BMP180;56625;54.322;18.582;2022-12-29T00:31:56;99978.20;;;6.70
69435;BMP180;56625;54.322;18.582;2022-12-29T00:34:44;99971.60;;;6.70
69435;BMP180;56625;54.322;18.582;2022-12-29T00:37:31;99972.60;;;6.70
69435;BMP180;56625;54.322;18.582;2022-12-29T00:40:18;99969.60;;;6.70
69435;BMP180;56625;54.322;18.582;2022-12-29T00:43:05;99976.00;;;6.70
69435;BMP180;56625;54.322;18.582;2022-12-29T00:45:51;99970.40;;;6.70
69435;BMP180;56625;54.322;18.582;2022-12-29T00:48:19;99969.60;;;6.70
69435;BMP180;56625;54.322;18.582;2022-12-29T00:51:07;99967.80;;;6.70
69435;BMP180;56625;54.322;18.582;2022-12-29T00:53:35;99966.60;;;6.70
69435;BMP180;56625;54.322;18.582;2022-12-29T00:56:03;99971.80;;;6.70
69435;BMP180;56625;54.322;18.582;2022-12-29T00:58:31;99964.00;;;6.70
69435;BMP180;56625;54.322;18.582;2022-12-29T01:01:05;99960.00;;;6.70
69435;BMP180;56625;54.322;18.582;2022-12-29T01:03:36;99962.60;;;6.70
69435;BMP180;56625;54.322;18.582;2022-12-29T01:06:07;99955.40;;;6.70
69435;BMP180;56625;54.322;18.582;2022-12-29T01:08:36;99950.20;;;6.70
69435;BMP180;56625;54.322;18.582;2022-12-29T01:14:48;99944.60;;;6.70
69435;BMP180;56625;54.322;18.582;2022-12-29T01:17:16;99934.00;;;6.70
69435;BMP180;56625;54.322;18.582;2022-12-29T01:19:44;99934.40;;;6.70
69435;BMP180;56625;54.322;18.582;2022-12-29T01:22:12;99933.00;;;6.66
69435;BMP180;56625;54.322;18.582;2022-12-29T01:24:40;99931.60;;;6.60
69435;BMP180;56625;54.322;18.582;2022-12-29T01:27:08;99935.80;;;6.60
69435;BMP180;56625;54.322;18.582;2022-12-29T01:29:36;99941.40;;;6.60
69435;BMP180;56625;54.322;18.582;2022-12-29T01:32:04;99939.60;;;6.60
69435;BMP180;56625;54.322;18.582;2022-12-29T01:34:32;99937.00;;;6.60
69435;BMP180;56625;54.322;18.582;2022-12-29T01:37:00;99938.20;;;6.60
69435;BMP180;56625;54.322;18.582;2022-12-29T01:39:28;99931.40;;;6.60
69435;BMP180;56625;54.322;18.582;2022-12-29T01:41:56;99931.80;;;6.60
69435;BMP180;56625;54.322;18.582;2022-12-29T01:47:43;99930.00;;;6.60
69435;BMP180;56625;54.322;18.582;2022-12-29T01:53:21;99930.80;;;6.60
69435;BMP180;56625;54.322;18.582;2022-12-29T01:55:55;99928.40;;;6.52
69435;BMP180;56625;54.322;18.582;2022-12-29T01:58:32;99927.00;;;6.50
69435;BMP180;56625;54.322;18.582;2022-12-29T02:01:02;99925.80;;;6.50
69435;BMP180;56625;54.322;18.582;2022-12-29T02:03:31;99923.40;;;6.50
69435;BMP180;56625;54.322;18.582;2022-12-29T02:06:29;99920.60;;;6.50
69435;BMP180;56625;54.322;18.582;2022-12-29T02:08:59;99920.00;;;6.50
69435;BMP180;56625;54.322;18.582;2022-12-29T02:11:29;99913.60;;;6.50
69435;BMP180;56625;54.322;18.582;2022-12-29T02:13:58;99913.80;;;6.50
69435;BMP180;56625;54.322;18.582;2022-12-29T02:29:01;99904.80;;;6.40
69435;BMP180;56625;54.322;18.582;2022-12-29T02:32:03;99909.00;;;6.40
69435;BMP180;56625;54.322;18.582;2022-12-29T02:52:04;99893.60;;;6.40
69435;BMP180;56625;54.322;18.582;2022-12-29T02:54:35;99890.80;;;6.40
69435;BMP180;56625;54.322;18.582;2022-12-29T03:00:06;99882.60;;;6.40
69435;BMP180;56625;54.322;18.582;2022-12-29T03:08:44;99869.20;;;6.40
69435;BMP180;56625;54.322;18.582;2022-12-29T03:11:15;99867.00;;;6.46
69435;BMP180;56625;54.322;18.582;2022-12-29T03:14:29;99868.20;;;6.42
69435;BMP180;56625;54.322;18.582;2022-12-29T03:17:31;99874.80;;;6.40
69435;BMP180;56625;54.322;18.582;2022-12-29T03:20:10;99873.20;;;6.40
69435;BMP180;56625;54.322;18.582;2022-12-29T03:22:47;99868.80;;;6.40
69435;BMP180;56625;54.322;18.582;2022-12-29T03:25:38;99867.80;;;6.40
69435;BMP180;56625;54.322;18.582;2022-12-29T03:28:22;99855.60;;;6.40
69435;BMP180;56625;54.322;18.582;2022-12-29T03:30:52;99857.40;;;6.40
69435;BMP180;56625;54.322;18.582;2022-12-29T03:33:24;99855.20;;;6.40
69435;BMP180;56625;54.322;18.582;2022-12-29T03:36:03;99852.60;;;6.40
69435;BMP180;56625;54.322;18.582;2022-12-29T03:38:49;99854.00;;;6.40
69435;BMP180;56625;54.322;18.582;2022-12-29T03:41:26;99851.40;;;6.40
69435;BMP180;56625;54.322;18.582;2022-12-29T03:43:55;99856.60;;;6.40
69435;BMP180;56625;54.322;18.582;2022-12-29T03:46:22;99857.40;;;6.46
69435;BMP180;56625;54.322;18.582;2022-12-29T03:48:50;99857.40;;;6.42
69435;BMP180;56625;54.322;18.582;2022-12-29T03:51:19;99847.40;;;6.40
69435;BMP180;56625;54.322;18.582;2022-12-29T03:53:46;99841.80;;;6.40
69435;BMP180;56625;54.322;18.582;2022-12-29T03:56:15;99838.80;;;6.40
69435;BMP180;56625;54.322;18.582;2022-12-29T03:58:44;99846.40;;;6.40
69435;BMP180;56625;54.322;18.582;2022-12-29T04:01:12;99838.60;;;6.40
69435;BMP180;56625;54.322;18.582;2022-12-29T04:03:40;99846.00;;;6.40
69435;BMP180;56625;54.322;18.582;2022-12-29T04:06:08;99854.40;;;6.40
69435;BMP180;56625;54.322;18.582;2022-12-29T04:08:36;99853.20;;;6.38
69435;BMP180;56625;54.322;18.582;2022-12-29T04:11:04;99840.80;;;6.40
69435;BMP180;56625;54.322;18.582;2022-12-29T04:13:34;99831.20;;;6.36
69435;BMP180;56625;54.322;18.582;2022-12-29T04:16:01;99833.60;;;6.30
69435;BMP180;56625;54.322;18.582;2022-12-29T04:18:30;99832.20;;;6.30
69435;BMP180;56625;54.322;18.582;2022-12-29T04:20:58;99828.40;;;6.30
69435;BMP180;56625;54.322;18.582;2022-12-29T04:23:34;99815.60;;;6.30
69435;BMP180;56625;54.322;18.582;2022-12-29T04:26:04;99823.80;;;6.30
69435;BMP180;56625;54.322;18.582;2022-12-29T04:28:35;99820.20;;;6.30
69435;BMP180;56625;54.322;18.582;2022-12-29T04:31:04;99820.40;;;6.30
69435;BMP180;56625;54.322;18.582;2022-12-29T04:33:32;99815.00;;;6.30
69435;BMP180;56625;54.322;18.582;2022-12-29T04:36:00;99814.00;;;6.30
69435;BMP180;56625;54.322;18.582;2022-12-29T04:38:28;99807.80;;;6.30
69435;BMP180;56625;54.322;18.582;2022-12-29T04:41:00;99804.40;;;6.30
69435;BMP180;56625;54.322;18.582;2022-12-29T04:43:28;99804.60;;;6.30
69435;BMP180;56625;54.322;18.582;2022-12-29T04:45:56;99802.80;;;6.30
69435;BMP180;56625;54.322;18.582;2022-12-29T04:48:24;99801.00;;;6.30
69435;BMP180;56625;54.322;18.582;2022-12-29T04:50:52;99799.80;;;6.30
69435;BMP180;56625;54.322;18.582;2022-12-29T04:53:20;99794.40;;;6.30
69435;BMP180;56625;54.322;18.582;2022-12-29T04:55:51;99797.20;;;6.30
69435;BMP180;56625;54.322;18.582;2022-12-29T04:58:20;99789.60;;;6.30
69435;BMP180;56625;54.322;18.582;2022-12-29T05:00:51;99795.80;;;6.30
69435;BMP180;56625;54.322;18.582;2022-12-29T05:03:26;99793.80;;;6.38
69435;BMP180;56625;54.322;18.582;2022-12-29T05:06:00;99793.60;;;6.40
69435;BMP180;56625;54.322;18.582;2022-12-29T05:08:28;99795.40;;;6.40
69435;BMP180;56625;54.322;18.582;2022-12-29T05:10:56;99796.40;;;6.40
69435;BMP180;56625;54.322;18.582;2022-12-29T05:13:24;99793.20;;;6.40
69435;BMP180;56625;54.322;18.582;2022-12-29T05:15:53;99786.60;;;6.40
69435;BMP180;56625;54.322;18.582;2022-12-29T05:19:04;99785.80;;;6.42
69435;BMP180;56625;54.322;18.582;2022-12-29T05:21:32;99780.80;;;6.50
69435;BMP180;56625;54.322;18.582;2022-12-29T05:24:00;99773.60;;;6.50
69435;BMP180;56625;54.322;18.582;2022-12-29T05:26:28;99773.20;;;6.60
69435;BMP180;56625;54.322;18.582;2022-12-29T05:28:56;99765.60;;;6.60
69435;BMP180;56625;54.322;18.582;2022-12-29T05:31:24;99758.20;;;6.60
69435;BMP180;56625;54.322;18.582;2022-12-29T05:33:52;99755.00;;;6.60
69435;BMP180;56625;54.322;18.582;2022-12-29T05:36:20;99758.80;;;6.60
69435;BMP180;56625;54.322;18.582;2022-12-29T05:38:49;99751.00;;;6.60
69435;BMP180;56625;54.322;18.582;2022-12-29T05:41:16;99746.40;;;6.60
69435;BMP180;56625;54.322;18.582;2022-12-29T05:43:44;99749.20;;;6.60
69435;BMP180;56625;54.322;18.582;2022-12-29T05:46:12;99748.20;;;6.60
69435;BMP180;56625;54.322;18.582;2022-12-29T05:48:41;99751.20;;;6.60
69435;BMP180;56625;54.322;18.582;2022-12-29T05:51:09;99748.80;;;6.60
69435;BMP180;56625;54.322;18.582;2022-12-29T05:53:37;99748.80;;;6.60
69435;BMP180;56625;54.322;18.582;2022-12-29T05:56:05;99748.20;;;6.60
69435;BMP180;56625;54.322;18.582;2022-12-29T05:58:34;99745.00;;;6.60
69435;BMP180;56625;54.322;18.582;2022-12-29T06:01:02;99738.40;;;6.60
69435;BMP180;56625;54.322;18.582;2022-12-29T06:03:30;99741.40;;;6.60
69435;BMP180;56625;54.322;18.582;2022-12-29T06:05:58;99743.80;;;6.60
69435;BMP180;56625;54.322;18.582;2022-12-29T06:08:26;99737.60;;;6.60
69435;BMP180;56625;54.322;18.582;2022-12-29T06:10:54;99730.20;;;6.60
69435;BMP180;56625;54.322;18.582;2022-12-29T06:13:22;99719.20;;;6.60
69435;BMP180;56625;54.322;18.582;2022-12-29T06:15:51;99718.40;;;6.60
69435;BMP180;56625;54.322;18.582;2022-12-29T06:18:19;99705.80;;;6.60
69435;BMP180;56625;54.322;18.582;2022-12-29T06:20:48;99710.40;;;6.60
69435;BMP180;56625;54.322;18.582;2022-12-29T06:23:16;99707.00;;;6.60
69435;BMP180;56625;54.322;18.582;2022-12-29T06:25:49;99695.80;;;6.60
69435;BMP180;56625;54.322;18.582;2022-12-29T06:28:17;99701.60;;;6.60
69435;BMP180;56625;54.322;18.582;2022-12-29T06:30:46;99702.60;;;6.60
69435;BMP180;56625;54.322;18.582;2022-12-29T06:33:15;99709.80;;;6.60
69435;BMP180;56625;54.322;18.582;2022-12-29T06:35:45;99706.80;;;6.64
69435;BMP180;56625;54.322;18.582;2022-12-29T06:38:14;99701.80;;;6.70
69435;BMP180;56625;54.322;18.582;2022-12-29T06:40:42;99708.60;;;6.68
69435;BMP180;56625;54.322;18.582;2022-12-29T06:43:13;99709.80;;;6.70
69435;BMP180;56625;54.322;18.582;2022-12-29T06:45:41;99705.20;;;6.70
69435;BMP180;56625;54.322;18.582;2022-12-29T06:48:10;99707.00;;;6.70
69435;BMP180;56625;54.322;18.582;2022-12-29T06:50:38;99710.40;;;6.70
69435;BMP180;56625;54.322;18.582;2022-12-29T06:53:07;99702.60;;;6.70
69435;BMP180;56625;54.322;18.582;2022-12-29T06:55:35;99707.20;;;6.70
69435;BMP180;56625;54.322;18.582;2022-12-29T06:58:03;99713.60;;;6.70
69435;BMP180;56625;54.322;18.582;2022-12-29T07:00:31;99706.20;;;6.70
69435;BMP180;56625;54.322;18.582;2022-12-29T07:02:59;99708.40;;;6.72
69435;BMP180;56625;54.322;18.582;2022-12-29T07:05:27;99708.20;;;6.72
69435;BMP180;56625;54.322;18.582;2022-12-29T07:07:55;99704.40;;;6.80
69435;BMP180;56625;54.322;18.582;2022-12-29T07:10:23;99696.80;;;6.80
69435;BMP180;56625;54.322;18.582;2022-12-29T07:12:51;99686.20;;;6.80
69435;BMP180;56625;54.322;18.582;2022-12-29T07:15:20;99697.40;;;6.80
69435;BMP180;56625;54.322;18.582;2022-12-29T07:17:48;99704.80;;;6.80
69435;BMP180;56625;54.322;18.582;2022-12-29T07:20:17;99709.00;;;6.80
69435;BMP180;56625;54.322;18.582;2022-12-29T07:22:53;99711.40;;;6.80
69435;BMP180;56625;54.322;18.582;2022-12-29T07:25:24;99716.20;;;6.80
69435;BMP180;56625;54.322;18.582;2022-12-29T07:27:53;99711.60;;;6.80
69435;BMP180;56625;54.322;18.582;2022-12-29T07:30:21;99711.80;;;6.84
69435;BMP180;56625;54.322;18.582;2022-12-29T07:32:49;99720.40;;;6.90
69435;BMP180;56625;54.322;18.582;2022-12-29T07:35:17;99720.60;;;6.90
69435;BMP180;56625;54.322;18.582;2022-12-29T07:37:46;99722.80;;;6.90
69435;BMP180;56625;54.322;18.582;2022-12-29T07:40:14;99722.00;;;6.90
69435;BMP180;56625;54.322;18.582;2022-12-29T07:42:42;99713.20;;;6.92
69435;BMP180;56625;54.322;18.582;2022-12-29T07:45:11;99711.20;;;6.96
69435;BMP180;56625;54.322;18.582;2022-12-29T07:47:38;99706.80;;;7.00
69435;BMP180;56625;54.322;18.582;2022-12-29T07:50:07;99696.60;;;7.00
69435;BMP180;56625;54.322;18.582;2022-12-29T07:52:35;99700.60;;;7.00
69435;BMP180;56625;54.322;18.582;2022-12-29T07:55:04;99704.80;;;7.00
69435;BMP180;56625;54.322;18.582;2022-12-29T07:57:32;99697.80;;;7.00
69435;BMP180;56625;54.322;18.582;2022-12-29T08:00:00;99708.80;;;7.00
69435;BMP180;56625;54.322;18.582;2022-12-29T08:02:28;99707.40;;;7.04
69435;BMP180;56625;54.322;18.582;2022-12-29T08:04:57;99706.60;;;7.08
69435;BMP180;56625;54.322;18.582;2022-12-29T08:07:25;99708.20;;;7.10
69435;BMP180;56625;54.322;18.582;2022-12-29T08:09:53;99705.20;;;7.10
69435;BMP180;56625;54.322;18.582;2022-12-29T08:12:21;99712.00;;;7.10
69435;BMP180;56625;54.322;18.582;2022-12-29T08:14:49;99711.00;;;7.14
69435;BMP180;56625;54.322;18.582;2022-12-29T08:17:17;99723.00;;;7.20
69435;BMP180;56625;54.322;18.582;2022-12-29T08:20:06;99727.40;;;7.20
69435;BMP180;56625;54.322;18.582;2022-12-29T08:22:35;99733.40;;;7.28
69435;BMP180;56625;54.322;18.582;2022-12-29T08:25:03;99730.80;;;7.30
69435;BMP180;56625;54.322;18.582;2022-12-29T08:27:31;99727.40;;;7.30
69435;BMP180;56625;54.322;18.582;2022-12-29T08:29:59;99723.80;;;7.30
69435;BMP180;56625;54.322;18.582;2022-12-29T08:32:29;99727.00;;;7.30
69435;BMP180;56625;54.322;18.582;2022-12-29T08:34:57;99725.60;;;7.30
69435;BMP180;56625;54.322;18.582;2022-12-29T08:37:26;99722.40;;;7.30
69435;BMP180;56625;54.322;18.582;2022-12-29T08:39:58;99721.80;;;7.30
69435;BMP180;56625;54.322;18.582;2022-12-29T08:42:31;99720.20;;;7.30
69435;BMP180;56625;54.322;18.582;2022-12-29T08:45:06;99719.80;;;7.30
69435;BMP180;56625;54.322;18.582;2022-12-29T08:47:34;99724.20;;;7.30
69435;BMP180;56625;54.322;18.582;2022-12-29T08:50:02;99720.80;;;7.30
69435;BMP180;56625;54.322;18.582;2022-12-29T08:52:31;99724.40;;;7.30
69435;BMP180;56625;54.322;18.582;2022-12-29T08:54:58;99718.80;;;7.30
69435;BMP180;56625;54.322;18.582;2022-12-29T08:57:26;99711.80;;;7.32
69435;BMP180;56625;54.322;18.582;2022-12-29T08:59:54;99716.20;;;7.30
69435;BMP180;56625;54.322;18.582;2022-12-29T09:02:22;99713.80;;;7.40
69435;BMP180;56625;54.322;18.582;2022-12-29T09:04:51;99711.40;;;7.40
69435;BMP180;56625;54.322;18.582;2022-12-29T09:07:19;99706.80;;;7.40
69435;BMP180;56625;54.322;18.582;2022-12-29T09:09:48;99701.00;;;7.40
69435;BMP180;56625;54.322;18.582;2022-12-29T09:12:17;99689.00;;;7.44
69435;BMP180;56625;54.322;18.582;2022-12-29T09:14:47;99686.60;;;7.50
69435;BMP180;56625;54.322;18.582;2022-12-29T09:17:15;99684.80;;;7.50
69435;BMP180;56625;54.322;18.582;2022-12-29T09:20:03;99692.20;;;7.50
69435;BMP180;56625;54.322;18.582;2022-12-29T09:22:31;99697.40;;;7.50
69435;BMP180;56625;54.322;18.582;2022-12-29T09:24:59;99694.80;;;7.52
69435;BMP180;56625;54.322;18.582;2022-12-29T09:27:27;99698.60;;;7.56
69435;BMP180;56625;54.322;18.582;2022-12-29T09:29:55;99695.80;;;7.60
69435;BMP180;56625;54.322;18.582;2022-12-29T09:32:23;99686.60;;;7.60
69435;BMP180;56625;54.322;18.582;2022-12-29T09:34:58;99678.80;;;7.60
69435;BMP180;56625;54.322;18.582;2022-12-29T09:37:27;99667.40;;;7.70
69435;BMP180;56625;54.322;18.582;2022-12-29T09:39:55;99670.40;;;7.70
69435;BMP180;56625;54.322;18.582;2022-12-29T09:42:42;99676.40;;;7.80
69435;BMP180;56625;54.322;18.582;2022-12-29T09:45:50;99667.60;;;7.80
69435;BMP180;56625;54.322;18.582;2022-12-29T09:48:27;99667.20;;;7.80
69435;BMP180;56625;54.322;18.582;2022-12-29T09:51:02;99665.00;;;7.84
69435;BMP180;56625;54.322;18.582;2022-12-29T09:54:05;99652.80;;;7.88
69435;BMP180;56625;54.322;18.582;2022-12-29T09:56:45;99648.40;;;7.90
69435;BMP180;56625;54.322;18.582;2022-12-29T09:59:41;99650.60;;;7.90
69435;BMP180;56625;54.322;18.582;2022-12-29T10:04:59;99658.00;;;8.00
69435;BMP180;56625;54.322;18.582;2022-12-29T10:07:45;99656.00;;;8.00
69435;BMP180;56625;54.322;18.582;2022-12-29T10:10:38;99647.20;;;8.10
69435;BMP180;56625;54.322;18.582;2022-12-29T10:13:30;99644.20;;;8.10
69435;BMP180;56625;54.322;18.582;2022-12-29T10:16:18;99648.20;;;8.10
69435;BMP180;56625;54.322;18.582;2022-12-29T10:19:28;99651.60;;;8.16
69435;BMP180;56625;54.322;18.582;2022-12-29T10:24:55;99656.80;;;8.20
69435;BMP180;56625;54.322;18.582;2022-12-29T10:27:24;99647.00;;;8.26
69435;BMP180;56625;54.322;18.582;2022-12-29T10:29:55;99644.00;;;8.30
69435;BMP180;56625;54.322;18.582;2022-12-29T10:32:33;99637.20;;;8.40
69435;BMP180;56625;54.322;18.582;2022-12-29T10:35:22;99644.80;;;8.40
69435;BMP180;56625;54.322;18.582;2022-12-29T10:38:15;99640.60;;;8.50
69435;BMP180;56625;54.322;18.582;2022-12-29T10:43:46;99620.20;;;8.50
69435;BMP180;56625;54.322;18.582;2022-12-29T10:46:25;99616.80;;;8.60
69435;BMP180;56625;54.322;18.582;2022-12-29T10:48:54;99609.00;;;8.60
69435;BMP180;56625;54.322;18.582;2022-12-29T10:51:39;99608.00;;;8.70
69435;BMP180;56625;54.322;18.582;2022-12-29T10:54:44;99615.60;;;8.70
69435;BMP180;56625;54.322;18.582;2022-12-29T10:57:36;99609.80;;;8.70
69435;BMP180;56625;54.322;18.582;2022-12-29T11:00:17;99604.60;;;8.70
69435;BMP180;56625;54.322;18.582;2022-12-29T11:09:15;99610.80;;;8.80
69435;BMP180;56625;54.322;18.582;2022-12-29T11:11:43;99607.00;;;8.80
69435;BMP180;56625;54.322;18.582;2022-12-29T11:14:30;99605.40;;;8.80
69435;BMP180;56625;54.322;18.582;2022-12-29T11:17:02;99593.60;;;8.80
69435;BMP180;56625;54.322;18.582;2022-12-29T11:19:34;99597.40;;;8.80
69435;BMP180;56625;54.322;18.582;2022-12-29T11:22:28;99597.80;;;8.80
69435;BMP180;56625;54.322;18.582;2022-12-29T11:25:10;99593.40;;;8.90
69435;BMP180;56625;54.322;18.582;2022-12-29T11:28:00;99600.80;;;8.90
69435;BMP180;56625;54.322;18.582;2022-12-29T11:30:32;99594.80;;;9.00
69435;BMP180;56625;54.322;18.582;2022-12-29T11:33:03;99595.20;;;9.10
69435;BMP180;56625;54.322;18.582;2022-12-29T11:35:39;99594.80;;;9.10
69435;BMP180;56625;54.322;18.582;2022-12-29T11:38:39;99589.80;;;9.00
69435;BMP180;56625;54.322;18.582;2022-12-29T11:41:13;99589.80;;;9.04
69435;BMP180;56625;54.322;18.582;2022-12-29T11:43:46;99590.00;;;9.00
69435;BMP180;56625;54.322;18.582;2022-12-29T11:46:25;99606.20;;;9.00
69435;BMP180;56625;54.322;18.582;2022-12-29T11:48:58;99602.20;;;9.00
69435;BMP180;56625;54.322;18.582;2022-12-29T11:51:37;99594.00;;;8.92
69435;BMP180;56625;54.322;18.582;2022-12-29T11:54:17;99593.80;;;8.90
69435;BMP180;56625;54.322;18.582;2022-12-29T11:56:48;99582.20;;;8.90
69435;BMP180;56625;54.322;18.582;2022-12-29T12:01:56;99584.20;;;8.90
69435;BMP180;56625;54.322;18.582;2022-12-29T12:04:30;99588.00;;;8.90
69435;BMP180;56625;54.322;18.582;2022-12-29T12:09:46;99591.00;;;8.90
69435;BMP180;56625;54.322;18.582;2022-12-29T12:12:32;99586.20;;;8.90
69435;BMP180;56625;54.322;18.582;2022-12-29T12:15:03;99586.40;;;8.88
69435;BMP180;56625;54.322;18.582;2022-12-29T12:18:00;99586.20;;;8.88
69435;BMP180;56625;54.322;18.582;2022-12-29T12:20:41;99588.60;;;8.84
69435;BMP180;56625;54.322;18.582;2022-12-29T12:26:18;99591.80;;;8.82
69435;BMP180;56625;54.322;18.582;2022-12-29T12:29:01;99599.60;;;8.90
69435;BMP180;56625;54.322;18.582;2022-12-29T12:31:59;99600.20;;;8.90
69435;BMP180;56625;54.322;18.582;2022-12-29T12:34:38;99606.80;;;8.90
69435;BMP180;56625;54.322;18.582;2022-12-29T12:46:12;99584.40;;;8.90
69435;BMP180;56625;54.322;18.582;2022-12-29T13:00:59;99567.40;;;8.90
69435;BMP180;56625;54.322;18.582;2022-12-29T13:07:00;99574.20;;;8.98
69435;BMP180;56625;54.322;18.582;2022-12-29T13:09:54;99576.00;;;9.00
69435;BMP180;56625;54.322;18.582;2022-12-29T13:13:28;99580.60;;;9.00
69435;BMP180;56625;54.322;18.582;2022-12-29T13:28:28;99609.20;;;9.00
69435;BMP180;56625;54.322;18.582;2022-12-29T13:31:24;99610.40;;;9.00
69435;BMP180;56625;54.322;18.582;2022-12-29T13:37:13;99614.60;;;9.00
69435;BMP180;56625;54.322;18.582;2022-12-29T13:40:03;99618.20;;;9.00
69435;BMP180;56625;54.322;18.582;2022-12-29T13:42:32;99614.20;;;9.00
69435;BMP180;56625;54.322;18.582;2022-12-29T13:45:09;99621.60;;;9.00
69435;BMP180;56625;54.322;18.582;2022-12-29T13:50:22;99616.00;;;8.96
69435;BMP180;56625;54.322;18.582;2022-12-29T13:56:07;99622.80;;;8.90
69435;BMP180;56625;54.322;18.582;2022-12-29T13:58:58;99616.00;;;8.80
69435;BMP180;56625;54.322;18.582;2022-12-29T14:04:28;99624.20;;;8.76
69435;BMP180;56625;54.322;18.582;2022-12-29T14:07:11;99618.20;;;8.70
69435;BMP180;56625;54.322;18.582;2022-12-29T14:09:56;99622.20;;;8.70
69435;BMP180;56625;54.322;18.582;2022-12-29T14:12:39;99625.40;;;8.70
69435;BMP180;56625;54.322;18.582;2022-12-29T14:17:40;99625.60;;;8.60
69435;BMP180;56625;54.322;18.582;2022-12-29T14:20:21;99623.60;;;8.60
69435;BMP180;56625;54.322;18.582;2022-12-29T14:23:38;99623.40;;;8.60
69435;BMP180;56625;54.322;18.582;2022-12-29T14:31:53;99625.80;;;8.56
69435;BMP180;56625;54.322;18.582;2022-12-29T14:37:01;99633.60;;;8.50
69435;BMP180;56625;54.322;18.582;2022-12-29T14:39:41;99635.00;;;8.48
69435;BMP180;56625;54.322;18.582;2022-12-29T14:47:49;99633.20;;;8.40
69435;BMP180;56625;54.322;18.582;2022-12-29T14:50:25;99623.20;;;8.40
69435;BMP180;56625;54.322;18.582;2022-12-29T14:53:00;99622.80;;;8.40
69435;BMP180;56625;54.322;18.582;2022-12-29T14:55:44;99623.40;;;8.40
69435;BMP180;56625;54.322;18.582;2022-12-29T14:58:26;99627.40;;;8.40
69435;BMP180;56625;54.322;18.582;2022-12-29T15:00:56;99628.40;;;8.36
69435;BMP180;56625;54.322;18.582;2022-12-29T15:03:46;99625.20;;;8.30
69435;BMP180;56625;54.322;18.582;2022-12-29T15:06:28;99621.40;;;8.30
69435;BMP180;56625;54.322;18.582;2022-12-29T15:12:45;99616.20;;;8.30
69435;BMP180;56625;54.322;18.582;2022-12-29T15:15:27;99622.00;;;8.30
69435;BMP180;56625;54.322;18.582;2022-12-29T15:18:23;99624.40;;;8.20
69435;BMP180;56625;54.322;18.582;2022-12-29T15:21:00;99624.60;;;8.20
69435;BMP180;56625;54.322;18.582;2022-12-29T15:23:32;99624.80;;;8.20
69435;BMP180;56625;54.322;18.582;2022-12-29T15:26:05;99625.40;;;8.20
69435;BMP180;56625;54.322;18.582;2022-12-29T15:28:44;99616.40;;;8.20
69435;BMP180;56625;54.322;18.582;2022-12-29T15:34:02;99616.60;;;8.20
69435;BMP180;56625;54.322;18.582;2022-12-29T15:36:38;99625.00;;;8.20
69435;BMP180;56625;54.322;18.582;2022-12-29T15:39:30;99620.40;;;8.20
69435;BMP180;56625;54.322;18.582;2022-12-29T15:45:32;99630.20;;;8.30
69435;BMP180;56625;54.322;18.582;2022-12-29T15:48:03;99633.40;;;8.30
69435;BMP180;56625;54.322;18.582;2022-12-29T15:50:35;99633.00;;;8.40
69435;BMP180;56625;54.322;18.582;2022-12-29T15:53:11;99636.60;;;8.50
69435;BMP180;56625;54.322;18.582;2022-12-29T15:55:42;99624.40;;;8.50
69435;BMP180;56625;54.322;18.582;2022-12-29T15:58:25;99633.60;;;8.60
69435;BMP180;56625;54.322;18.582;2022-12-29T16:01:01;99634.00;;;8.60
69435;BMP180;56625;54.322;18.582;2022-12-29T16:03:35;99629.20;;;8.60
69435;BMP180;56625;54.322;18.582;2022-12-29T16:06:29;99621.80;;;8.60
69435;BMP180;56625;54.322;18.582;2022-12-29T16:09:07;99617.20;;;8.60
69435;BMP180;56625;54.322;18.582;2022-12-29T16:11:50;99612.40;;;8.60
69435;BMP180;56625;54.322;18.582;2022-12-29T16:14:29;99609.40;;;8.60
69435;BMP180;56625;54.322;18.582;2022-12-29T16:17:02;99616.60;;;8.60
69435;BMP180;56625;54.322;18.582;2022-12-29T16:19:36;99617.20;;;8.60
69435;BMP180;56625;54.322;18.582;2022-12-29T16:22:28;99617.60;;;8.60
69435;BMP180;56625;54.322;18.582;2022-12-29T16:25:16;99612.20;;;8.60
69435;BMP180;56625;54.322;18.582;2022-12-29T16:27:44;99613.40;;;8.60
69435;BMP180;56625;54.322;18.582;2022-12-29T16:30:33;99615.80;;;8.60
69435;BMP180;56625;54.322;18.582;2022-12-29T16:33:05;99608.80;;;8.60
69435;BMP180;56625;54.322;18.582;2022-12-29T16:35:46;99606.40;;;8.60
69435;BMP180;56625;54.322;18.582;2022-12-29T16:38:22;99613.40;;;8.66
69435;BMP180;56625;54.322;18.582;2022-12-29T16:41:01;99615.80;;;8.70
69435;BMP180;56625;54.322;18.582;2022-12-29T16:43:35;99621.00;;;8.70
69435;BMP180;56625;54.322;18.582;2022-12-29T16:46:27;99638.60;;;8.80
69435;BMP180;56625;54.322;18.582;2022-12-29T16:48:57;99644.40;;;8.90
69435;BMP180;56625;54.322;18.582;2022-12-29T16:51:35;99644.40;;;8.90
69435;BMP180;56625;54.322;18.582;2022-12-29T16:54:04;99644.80;;;9.00
69435;BMP180;56625;54.322;18.582;2022-12-29T16:56:36;99648.40;;;9.10
69435;BMP180;56625;54.322;18.582;2022-12-29T16:59:37;99649.80;;;9.20
69435;BMP180;56625;54.322;18.582;2022-12-29T17:02:14;99645.20;;;9.40
69435;BMP180;56625;54.322;18.582;2022-12-29T17:04:43;99643.00;;;9.50
69435;BMP180;56625;54.322;18.582;2022-12-29T17:07:20;99648.40;;;9.50
69435;BMP180;56625;54.322;18.582;2022-12-29T17:09:49;99656.80;;;9.50
69435;BMP180;56625;54.322;18.582;2022-12-29T17:12:22;99654.60;;;9.50
69435;BMP180;56625;54.322;18.582;2022-12-29T17:14:56;99659.20;;;9.50
69435;BMP180;56625;54.322;18.582;2022-12-29T17:17:37;99668.60;;;9.40
69435;BMP180;56625;54.322;18.582;2022-12-29T17:20:28;99667.60;;;9.40